»·PEaware :: N805RJ KVIS-KFCH

N805RJ :: KVIS-KFCH

FLIGHT INFORMATION

Flight Status: Arrived
Operator: Privately registered:
United States
More flights under this callsign
Pilot: Rickie J. (22768)
Aircraft: CESSNA 172 SKYHAWK
(C172)
More flights by this aircraft type
Origin: KVIS Visalia Mun
United States
Destination: KFCH Fresno-Chandler Downtown
United States
More flights between these airports :: More routes between these airports
Route: PIXEY FRAME
File this flight plan on PilotEdge
Remarks:
Altitude:
(Current/Filed)
3,300ft
Speed:
(Current/Filed)
120kts
Departed: 14-Feb-20 09:01 AM
Arrived: 14-Feb-20 09:32 AM
Distance/Time
Traveled:
32nm/0:31
Distance/Time
To Go:
Arrived

Flight Plot

Page will automatically refresh every two minutes.

Flight plan parsing failed; only flown route is shown


Map Options




Map Legend


Flown Route
Filed Route
Departure Airport
Arrival Airport
Navaid (VOR, NDB)
Fix

Horizontal Profiles

Position Reports

Time Latitude Longitude Heading Altitude Ground
Speed
14-Feb-20 08:30 36.325931 -119.398110 266 298ft 0kts
14-Feb-20 08:31 36.325931 -119.398110 266 298ft 0kts
14-Feb-20 08:32 36.325931 -119.398110 266 298ft 0kts
14-Feb-20 08:33 36.325931 -119.398111 266 298ft 0kts
14-Feb-20 08:34 36.325931 -119.398110 266 298ft 0kts
14-Feb-20 08:35 36.325931 -119.398110 266 298ft 0kts
14-Feb-20 08:36 36.325931 -119.398110 266 298ft 0kts
14-Feb-20 08:37 36.325931 -119.398110 266 298ft 0kts
14-Feb-20 08:38 36.325931 -119.398110 266 298ft 0kts
14-Feb-20 08:39 36.325931 -119.398110 266 298ft 0kts
14-Feb-20 08:40 36.325931 -119.398110 266 298ft 0kts
14-Feb-20 08:41 36.325931 -119.398110 266 298ft 0kts
14-Feb-20 08:42 36.325931 -119.398110 266 298ft 0kts
14-Feb-20 08:43 36.325931 -119.398110 266 298ft 0kts
14-Feb-20 08:44 36.325931 -119.398110 266 298ft 0kts
14-Feb-20 08:45 36.325931 -119.398110 266 298ft 0kts
14-Feb-20 08:46 36.325931 -119.398110 266 298ft 0kts
14-Feb-20 08:47 36.325931 -119.398110 266 298ft 0kts
14-Feb-20 08:48 36.325928 -119.398151 265 298ft 0kts
14-Feb-20 08:49 36.325928 -119.398151 265 298ft 0kts
14-Feb-20 08:51 36.325927 -119.398176 266 298ft 0kts
14-Feb-20 08:52 36.325927 -119.398176 266 298ft 0kts
14-Feb-20 08:53 36.325927 -119.398176 266 298ft 0kts
14-Feb-20 08:54 36.325927 -119.398176 266 298ft 0kts
14-Feb-20 08:55 36.325007 -119.398422 201 298ft 7kts
14-Feb-20 08:56 36.325541 -119.400066 246 298ft 4kts
14-Feb-20 08:57 36.325514 -119.400120 235 298ft 0kts
14-Feb-20 08:58 36.325514 -119.400120 235 298ft 0kts
14-Feb-20 08:59 36.325453 -119.400185 216 298ft 2kts
14-Feb-20 09:00 36.324379 -119.399973 132 298ft 16kts
14-Feb-20 09:01 36.312479 -119.384774 134 730ft 81kts
14-Feb-20 09:02 36.295401 -119.362769 135 1641ft 93kts
14-Feb-20 09:03 36.273485 -119.365985 210 2531ft 95kts
14-Feb-20 09:04 36.251368 -119.383311 209 3342ft 102kts
14-Feb-20 09:05 36.220618 -119.397824 185 3299ft 121kts
14-Feb-20 09:06 36.187211 -119.400665 181 3299ft 120kts
14-Feb-20 09:07 36.153743 -119.402711 181 3299ft 120kts
14-Feb-20 09:08 36.120326 -119.404713 182 3301ft 120kts
14-Feb-20 09:09 36.100357 -119.426328 299 3295ft 127kts
14-Feb-20 09:10 36.132280 -119.443270 340 3300ft 127kts
14-Feb-20 09:10 36.159944 -119.456215 339 3302ft 127kts
14-Feb-20 09:11 36.195231 -119.473054 339 3200ft 142kts
14-Feb-20 09:13 36.238759 -119.493829 339 2852ft 144kts
14-Feb-20 09:13 36.270063 -119.508793 339 2597ft 144kts
14-Feb-20 09:14 36.307610 -119.526764 340 2299ft 145kts
14-Feb-20 09:16 36.351295 -119.547679 339 1996ft 142kts
14-Feb-20 09:16 36.381600 -119.562218 339 2000ft 139kts
14-Feb-20 09:17 36.417579 -119.579486 339 1999ft 139kts
14-Feb-20 09:18 36.453677 -119.596835 339 2002ft 138kts
14-Feb-20 09:19 36.489147 -119.613883 339 2001ft 134kts
14-Feb-20 09:20 36.523964 -119.630649 338 1999ft 134kts
14-Feb-20 09:21 36.558095 -119.647064 339 1998ft 123kts
14-Feb-20 09:22 36.585057 -119.660055 338 1999ft 95kts
14-Feb-20 09:23 36.612221 -119.673788 325 1995ft 108kts
14-Feb-20 09:24 36.637558 -119.693872 327 1996ft 97kts
14-Feb-20 09:25 36.658010 -119.710683 326 2001ft 86kts
14-Feb-20 09:26 36.677409 -119.727326 314 1996ft 81kts
14-Feb-20 09:27 36.691208 -119.749889 305 1651ft 82kts
14-Feb-20 09:28 36.704567 -119.772933 305 1152ft 82kts
14-Feb-20 09:29 36.717984 -119.795982 306 688ft 79kts
14-Feb-20 09:30 36.729341 -119.815520 303 334ft 66kts
14-Feb-20 09:31 36.734160 -119.824712 122 280ft 11kts
14-Feb-20 09:32 36.732010 -119.820999 126 280ft 14kts
14-Feb-20 09:33 36.729815 -119.818016 142 280ft 2kts
14-Feb-20 09:34 36.729768 -119.817828 88 280ft 0kts
14-Feb-20 09:35 36.729768 -119.817828 88 280ft 0kts

Navigation Log

Ident Type
Flight plan parsing failed, navigation log unavailable